Madison, Maine
Current Conditions -  °F | °C
As of 5:15 AM on Saturday 20 Dec 2014 (Local Time) from KWVL Reporting Station
Clear Clear  
Wind Chill: -13°   Ceiling: Unl
Heat Index: -8°   Visibility: 10mi
Dew Point: -12°   Wind: 6mph
Humidity: 73%   Direction: 10°N
Pressure: 30.21"   Gusts: NA
Location:  44.8°N, 69.88°W
Report Text: KWVL 201015Z 01005KT 10SM CLR M08/M12 A3021 RMK AO1
Loading
Personal Weather Stations






























Interactive Weather Map New forecast layout! Learn more

10-Day Weather Forecast

Advertisements
Track Severe Weather on mobile